sensor_id;sensor_type;location;lat;lon;timestamp;temperature;humidity
42135;DHT22;28312;43.460;11.810;2022-07-23T00:00:23;24.30;42.60
42135;DHT22;28312;43.460;11.810;2022-07-23T00:04:28;24.10;42.80
42135;DHT22;28312;43.460;11.810;2022-07-23T00:08:32;23.70;43.00
42135;DHT22;28312;43.460;11.810;2022-07-23T00:12:37;23.50;43.10
42135;DHT22;28312;43.460;11.810;2022-07-23T00:16:53;23.30;43.30
42135;DHT22;28312;43.460;11.810;2022-07-23T00:20:57;23.10;43.50
42135;DHT22;28312;43.460;11.810;2022-07-23T00:25:01;22.90;43.70
42135;DHT22;28312;43.460;11.810;2022-07-23T00:29:25;22.70;43.70
42135;DHT22;28312;43.460;11.810;2022-07-23T00:33:28;22.60;43.90
42135;DHT22;28312;43.460;11.810;2022-07-23T00:37:32;22.40;44.00
42135;DHT22;28312;43.460;11.810;2022-07-23T00:41:36;22.20;44.20
42135;DHT22;28312;43.460;11.810;2022-07-23T00:45:39;22.10;44.30
42135;DHT22;28312;43.460;11.810;2022-07-23T00:49:44;21.90;44.40
42135;DHT22;28312;43.460;11.810;2022-07-23T00:53:48;21.80;44.50
42135;DHT22;28312;43.460;11.810;2022-07-23T00:57:53;21.80;44.40
42135;DHT22;28312;43.460;11.810;2022-07-23T01:01:58;21.60;44.70
42135;DHT22;28312;43.460;11.810;2022-07-23T01:06:01;21.50;44.80
42135;DHT22;28312;43.460;11.810;2022-07-23T01:10:06;21.30;45.00
42135;DHT22;28312;43.460;11.810;2022-07-23T01:14:32;21.10;45.20
42135;DHT22;28312;43.460;11.810;2022-07-23T01:18:36;21.10;45.30
42135;DHT22;28312;43.460;11.810;2022-07-23T01:22:39;21.10;45.40
42135;DHT22;28312;43.460;11.810;2022-07-23T01:26:44;21.00;45.40
42135;DHT22;28312;43.460;11.810;2022-07-23T01:30:49;20.90;45.50
42135;DHT22;28312;43.460;11.810;2022-07-23T01:34:53;20.70;45.70
42135;DHT22;28312;43.460;11.810;2022-07-23T01:38:57;20.60;45.80
42135;DHT22;28312;43.460;11.810;2022-07-23T01:43:01;20.60;45.90
42135;DHT22;28312;43.460;11.810;2022-07-23T01:47:07;20.60;45.90
42135;DHT22;28312;43.460;11.810;2022-07-23T01:51:11;20.50;46.00
42135;DHT22;28312;43.460;11.810;2022-07-23T01:55:22;20.40;46.20
42135;DHT22;28312;43.460;11.810;2022-07-23T01:59:26;20.30;46.20
42135;DHT22;28312;43.460;11.810;2022-07-23T02:03:30;20.20;46.30
42135;DHT22;28312;43.460;11.810;2022-07-23T02:07:37;20.10;46.50
42135;DHT22;28312;43.460;11.810;2022-07-23T02:11:41;19.90;46.70
42135;DHT22;28312;43.460;11.810;2022-07-23T02:15:48;19.90;46.80
42135;DHT22;28312;43.460;11.810;2022-07-23T02:19:52;19.80;46.90
42135;DHT22;28312;43.460;11.810;2022-07-23T02:23:57;19.70;47.00
42135;DHT22;28312;43.460;11.810;2022-07-23T02:28:01;19.60;47.10
42135;DHT22;28312;43.460;11.810;2022-07-23T02:32:05;19.50;47.30
42135;DHT22;28312;43.460;11.810;2022-07-23T02:36:11;19.40;47.40
42135;DHT22;28312;43.460;11.810;2022-07-23T02:40:14;19.30;47.50
42135;DHT22;28312;43.460;11.810;2022-07-23T02:44:19;19.20;47.70
42135;DHT22;28312;43.460;11.810;2022-07-23T02:48:26;19.10;47.80
42135;DHT22;28312;43.460;11.810;2022-07-23T02:52:31;19.10;47.90
42135;DHT22;28312;43.460;11.810;2022-07-23T02:56:35;19.10;48.00
42135;DHT22;28312;43.460;11.810;2022-07-23T03:00:38;19.10;48.20
42135;DHT22;28312;43.460;11.810;2022-07-23T03:04:42;19.00;48.20
42135;DHT22;28312;43.460;11.810;2022-07-23T03:08:47;19.00;48.20
42135;DHT22;28312;43.460;11.810;2022-07-23T03:12:51;18.90;48.30
42135;DHT22;28312;43.460;11.810;2022-07-23T03:16:54;18.80;48.40
42135;DHT22;28312;43.460;11.810;2022-07-23T03:20:58;18.70;48.50
42135;DHT22;28312;43.460;11.810;2022-07-23T03:25:02;18.70;48.70
42135;DHT22;28312;43.460;11.810;2022-07-23T03:29:10;18.60;48.70
42135;DHT22;28312;43.460;11.810;2022-07-23T03:33:15;18.60;48.80
42135;DHT22;28312;43.460;11.810;2022-07-23T03:37:20;18.50;48.90
42135;DHT22;28312;43.460;11.810;2022-07-23T03:41:23;18.50;48.90
42135;DHT22;28312;43.460;11.810;2022-07-23T03:45:27;18.40;49.00
42135;DHT22;28312;43.460;11.810;2022-07-23T03:49:33;18.40;49.20
42135;DHT22;28312;43.460;11.810;2022-07-23T03:53:36;18.30;49.30
42135;DHT22;28312;43.460;11.810;2022-07-23T03:57:42;18.30;49.40
42135;DHT22;28312;43.460;11.810;2022-07-23T04:01:46;18.20;49.60
42135;DHT22;28312;43.460;11.810;2022-07-23T04:05:50;18.20;49.70
42135;DHT22;28312;43.460;11.810;2022-07-23T04:09:54;18.20;49.70
42135;DHT22;28312;43.460;11.810;2022-07-23T04:13:57;18.20;49.80
42135;DHT22;28312;43.460;11.810;2022-07-23T04:18:01;18.10;50.00
42135;DHT22;28312;43.460;11.810;2022-07-23T04:22:14;18.10;50.20
42135;DHT22;28312;43.460;11.810;2022-07-23T04:26:18;18.10;50.30
42135;DHT22;28312;43.460;11.810;2022-07-23T04:30:22;18.20;50.20
42135;DHT22;28312;43.460;11.810;2022-07-23T04:34:26;18.20;50.30
42135;DHT22;28312;43.460;11.810;2022-07-23T04:38:31;18.20;50.50
42135;DHT22;28312;43.460;11.810;2022-07-23T04:42:38;18.20;50.70
42135;DHT22;28312;43.460;11.810;2022-07-23T04:46:42;18.30;50.80
42135;DHT22;28312;43.460;11.810;2022-07-23T04:50:49;18.40;50.70
42135;DHT22;28312;43.460;11.810;2022-07-23T04:54:59;18.50;50.80
42135;DHT22;28312;43.460;11.810;2022-07-23T04:59:03;18.70;51.00
42135;DHT22;28312;43.460;11.810;2022-07-23T05:03:07;18.70;51.10
42135;DHT22;28312;43.460;11.810;2022-07-23T05:07:11;19.00;51.40
42135;DHT22;28312;43.460;11.810;2022-07-23T05:11:16;19.20;51.40
42135;DHT22;28312;43.460;11.810;2022-07-23T05:15:21;19.40;51.40
42135;DHT22;28312;43.460;11.810;2022-07-23T05:19:25;19.70;51.20
42135;DHT22;28312;43.460;11.810;2022-07-23T05:23:29;19.90;51.10
42135;DHT22;28312;43.460;11.810;2022-07-23T05:27:33;20.20;51.10
42135;DHT22;28312;43.460;11.810;2022-07-23T05:31:37;20.40;51.20
42135;DHT22;28312;43.460;11.810;2022-07-23T05:35:41;20.70;51.10
42135;DHT22;28312;43.460;11.810;2022-07-23T05:40:03;21.40;50.90
42135;DHT22;28312;43.460;11.810;2022-07-23T05:44:07;21.40;50.90
42135;DHT22;28312;43.460;11.810;2022-07-23T05:48:14;21.70;50.70
42135;DHT22;28312;43.460;11.810;2022-07-23T05:52:30;22.10;50.60
42135;DHT22;28312;43.460;11.810;2022-07-23T05:56:57;22.40;50.30
42135;DHT22;28312;43.460;11.810;2022-07-23T06:01:01;22.70;50.20
42135;DHT22;28312;43.460;11.810;2022-07-23T06:05:12;23.10;50.00
42135;DHT22;28312;43.460;11.810;2022-07-23T06:09:15;23.40;49.90
42135;DHT22;28312;43.460;11.810;2022-07-23T06:13:19;23.80;50.00
42135;DHT22;28312;43.460;11.810;2022-07-23T06:17:23;24.10;49.80
42135;DHT22;28312;43.460;11.810;2022-07-23T06:21:28;24.40;49.80
42135;DHT22;28312;43.460;11.810;2022-07-23T06:25:50;24.60;50.00
42135;DHT22;28312;43.460;11.810;2022-07-23T06:29:55;25.00;49.80
42135;DHT22;28312;43.460;11.810;2022-07-23T06:33:59;25.30;49.70
42135;DHT22;28312;43.460;11.810;2022-07-23T06:38:03;25.50;49.50
42135;DHT22;28312;43.460;11.810;2022-07-23T06:42:07;25.80;49.30
42135;DHT22;28312;43.460;11.810;2022-07-23T06:46:13;26.10;49.20
42135;DHT22;28312;43.460;11.810;2022-07-23T06:50:17;26.30;49.20
42135;DHT22;28312;43.460;11.810;2022-07-23T06:54:21;26.60;49.00
42135;DHT22;28312;43.460;11.810;2022-07-23T06:58:26;26.80;49.10
42135;DHT22;28312;43.460;11.810;2022-07-23T07:02:30;27.10;49.00
42135;DHT22;28312;43.460;11.810;2022-07-23T07:06:34;27.30;49.00
42135;DHT22;28312;43.460;11.810;2022-07-23T07:10:38;27.50;48.80
42135;DHT22;28312;43.460;11.810;2022-07-23T07:14:42;27.80;48.60
42135;DHT22;28312;43.460;11.810;2022-07-23T07:18:46;28.00;48.40
42135;DHT22;28312;43.460;11.810;2022-07-23T07:22:50;28.20;48.30
42135;DHT22;28312;43.460;11.810;2022-07-23T07:26:53;28.40;48.20
42135;DHT22;28312;43.460;11.810;2022-07-23T07:30:57;28.70;48.10
42135;DHT22;28312;43.460;11.810;2022-07-23T07:35:02;28.90;48.10
42135;DHT22;28312;43.460;11.810;2022-07-23T07:39:06;29.10;48.00
42135;DHT22;28312;43.460;11.810;2022-07-23T07:43:10;29.40;47.80
42135;DHT22;28312;43.460;11.810;2022-07-23T07:47:15;29.60;47.70
42135;DHT22;28312;43.460;11.810;2022-07-23T07:51:18;29.80;47.50
42135;DHT22;28312;43.460;11.810;2022-07-23T07:55:23;30.00;47.50
42135;DHT22;28312;43.460;11.810;2022-07-23T07:59:30;30.30;47.30
42135;DHT22;28312;43.460;11.810;2022-07-23T08:03:36;30.60;47.20
42135;DHT22;28312;43.460;11.810;2022-07-23T08:07:40;30.80;46.70
42135;DHT22;28312;43.460;11.810;2022-07-23T08:11:44;30.90;46.60
42135;DHT22;28312;43.460;11.810;2022-07-23T08:15:49;31.10;46.40
42135;DHT22;28312;43.460;11.810;2022-07-23T08:19:54;31.50;46.20
42135;DHT22;28312;43.460;11.810;2022-07-23T08:23:59;31.60;46.00
42135;DHT22;28312;43.460;11.810;2022-07-23T08:28:06;31.80;46.00
42135;DHT22;28312;43.460;11.810;2022-07-23T08:32:10;32.10;45.60
42135;DHT22;28312;43.460;11.810;2022-07-23T08:36:33;32.40;45.20
42135;DHT22;28312;43.460;11.810;2022-07-23T08:40:40;32.60;44.90
42135;DHT22;28312;43.460;11.810;2022-07-23T08:44:46;32.60;44.80
42135;DHT22;28312;43.460;11.810;2022-07-23T08:48:50;32.80;44.70
42135;DHT22;28312;43.460;11.810;2022-07-23T08:52:55;33.00;44.30
42135;DHT22;28312;43.460;11.810;2022-07-23T08:57:00;33.10;44.20
42135;DHT22;28312;43.460;11.810;2022-07-23T09:01:04;33.30;43.90
42135;DHT22;28312;43.460;11.810;2022-07-23T09:05:10;33.50;43.80
42135;DHT22;28312;43.460;11.810;2022-07-23T09:09:21;33.60;43.80
42135;DHT22;28312;43.460;11.810;2022-07-23T09:13:36;33.90;43.70
42135;DHT22;28312;43.460;11.810;2022-07-23T09:17:42;34.30;43.50
42135;DHT22;28312;43.460;11.810;2022-07-23T09:21:46;34.60;43.30
42135;DHT22;28312;43.460;11.810;2022-07-23T09:25:49;34.90;42.70
42135;DHT22;28312;43.460;11.810;2022-07-23T09:29:56;34.90;42.30
42135;DHT22;28312;43.460;11.810;2022-07-23T09:34:14;35.00;42.20
42135;DHT22;28312;43.460;11.810;2022-07-23T09:38:21;35.10;42.10
42135;DHT22;28312;43.460;11.810;2022-07-23T09:42:25;35.20;41.80
42135;DHT22;28312;43.460;11.810;2022-07-23T09:46:29;35.40;41.40
42135;DHT22;28312;43.460;11.810;2022-07-23T09:50:33;35.40;41.10
42135;DHT22;28312;43.460;11.810;2022-07-23T09:54:39;35.60;41.00
42135;DHT22;28312;43.460;11.810;2022-07-23T09:58:44;35.70;41.20
42135;DHT22;28312;43.460;11.810;2022-07-23T10:02:52;36.10;40.90
42135;DHT22;28312;43.460;11.810;2022-07-23T10:07:06;36.30;40.80
42135;DHT22;28312;43.460;11.810;2022-07-23T10:11:43;36.60;40.60
42135;DHT22;28312;43.460;11.810;2022-07-23T10:16:03;36.80;40.50
42135;DHT22;28312;43.460;11.810;2022-07-23T10:20:07;36.90;40.40
42135;DHT22;28312;43.460;11.810;2022-07-23T10:28:51;37.20;40.30
42135;DHT22;28312;43.460;11.810;2022-07-23T10:33:27;37.40;40.00
42135;DHT22;28312;43.460;11.810;2022-07-23T10:37:39;37.60;39.80
42135;DHT22;28312;43.460;11.810;2022-07-23T10:41:45;37.70;39.50
42135;DHT22;28312;43.460;11.810;2022-07-23T10:45:47;37.80;39.60
42135;DHT22;28312;43.460;11.810;2022-07-23T10:49:51;38.00;39.10
42135;DHT22;28312;43.460;11.810;2022-07-23T10:53:58;38.10;39.00
42135;DHT22;28312;43.460;11.810;2022-07-23T10:58:04;38.10;38.70
42135;DHT22;28312;43.460;11.810;2022-07-23T11:02:21;38.10;38.60
42135;DHT22;28312;43.460;11.810;2022-07-23T11:11:07;38.20;38.90
42135;DHT22;28312;43.460;11.810;2022-07-23T11:15:13;38.50;38.70
42135;DHT22;28312;43.460;11.810;2022-07-23T11:19:18;38.80;38.40
42135;DHT22;28312;43.460;11.810;2022-07-23T11:23:21;38.90;38.10
42135;DHT22;28312;43.460;11.810;2022-07-23T11:27:37;39.10;38.10
42135;DHT22;28312;43.460;11.810;2022-07-23T11:32:01;39.20;37.90
42135;DHT22;28312;43.460;11.810;2022-07-23T11:36:05;39.30;37.90
42135;DHT22;28312;43.460;11.810;2022-07-23T11:40:10;39.50;38.10
42135;DHT22;28312;43.460;11.810;2022-07-23T11:44:30;39.70;38.30
42135;DHT22;28312;43.460;11.810;2022-07-23T11:48:33;39.80;37.60
42135;DHT22;28312;43.460;11.810;2022-07-23T11:52:43;39.60;37.50
42135;DHT22;28312;43.460;11.810;2022-07-23T11:56:56;39.60;36.50
42135;DHT22;28312;43.460;11.810;2022-07-23T12:01:03;39.50;36.70
42135;DHT22;28312;43.460;11.810;2022-07-23T12:05:08;39.60;36.40
42135;DHT22;28312;43.460;11.810;2022-07-23T12:09:14;39.70;36.60
42135;DHT22;28312;43.460;11.810;2022-07-23T12:13:19;39.90;36.20
42135;DHT22;28312;43.460;11.810;2022-07-23T12:17:37;40.00;36.00
42135;DHT22;28312;43.460;11.810;2022-07-23T12:21:41;40.30;35.40
42135;DHT22;28312;43.460;11.810;2022-07-23T12:25:46;40.40;35.30
42135;DHT22;28312;43.460;11.810;2022-07-23T12:29:51;40.30;34.90
42135;DHT22;28312;43.460;11.810;2022-07-23T12:33:55;40.20;34.70
42135;DHT22;28312;43.460;11.810;2022-07-23T12:38:11;40.00;34.40
42135;DHT22;28312;43.460;11.810;2022-07-23T12:42:15;39.80;34.60
42135;DHT22;28312;43.460;11.810;2022-07-23T12:46:21;39.90;34.20
42135;DHT22;28312;43.460;11.810;2022-07-23T12:50:42;40.00;33.80
42135;DHT22;28312;43.460;11.810;2022-07-23T12:54:46;40.00;33.40
42135;DHT22;28312;43.460;11.810;2022-07-23T12:58:54;39.90;33.20
42135;DHT22;28312;43.460;11.810;2022-07-23T13:02:58;39.90;33.30
42135;DHT22;28312;43.460;11.810;2022-07-23T13:07:02;40.00;33.50
42135;DHT22;28312;43.460;11.810;2022-07-23T13:11:07;40.20;32.90
42135;DHT22;28312;43.460;11.810;2022-07-23T13:15:10;40.30;32.60
42135;DHT22;28312;43.460;11.810;2022-07-23T13:19:14;40.10;32.30
42135;DHT22;28312;43.460;11.810;2022-07-23T13:23:21;39.90;32.50
42135;DHT22;28312;43.460;11.810;2022-07-23T13:27:24;39.80;32.80
42135;DHT22;28312;43.460;11.810;2022-07-23T13:31:29;40.00;32.60
42135;DHT22;28312;43.460;11.810;2022-07-23T13:35:34;40.00;32.50
42135;DHT22;28312;43.460;11.810;2022-07-23T13:39:38;40.00;32.70
42135;DHT22;28312;43.460;11.810;2022-07-23T13:43:45;40.10;33.10
42135;DHT22;28312;43.460;11.810;2022-07-23T13:47:50;40.30;34.00
42135;DHT22;28312;43.460;11.810;2022-07-23T13:51:55;40.40;35.30
42135;DHT22;28312;43.460;11.810;2022-07-23T13:56:00;40.60;36.30
42135;DHT22;28312;43.460;11.810;2022-07-23T14:00:06;40.60;36.70
42135;DHT22;28312;43.460;11.810;2022-07-23T14:04:13;40.30;37.60
42135;DHT22;28312;43.460;11.810;2022-07-23T14:08:16;40.00;39.40
42135;DHT22;28312;43.460;11.810;2022-07-23T14:12:24;39.90;39.90
42135;DHT22;28312;43.460;11.810;2022-07-23T14:16:35;39.80;40.40
42135;DHT22;28312;43.460;11.810;2022-07-23T14:20:39;39.60;41.10
42135;DHT22;28312;43.460;11.810;2022-07-23T14:24:43;39.50;41.70
42135;DHT22;28312;43.460;11.810;2022-07-23T14:28:46;39.30;41.90
42135;DHT22;28312;43.460;11.810;2022-07-23T14:32:51;39.30;42.50
42135;DHT22;28312;43.460;11.810;2022-07-23T14:36:56;39.60;43.00
42135;DHT22;28312;43.460;11.810;2022-07-23T14:41:00;40.00;43.20
42135;DHT22;28312;43.460;11.810;2022-07-23T14:45:04;40.40;43.30
42135;DHT22;28312;43.460;11.810;2022-07-23T14:49:14;40.40;42.70
42135;DHT22;28312;43.460;11.810;2022-07-23T14:53:18;40.30;42.80
42135;DHT22;28312;43.460;11.810;2022-07-23T14:57:25;40.30;43.40
42135;DHT22;28312;43.460;11.810;2022-07-23T15:01:29;40.40;42.80
42135;DHT22;28312;43.460;11.810;2022-07-23T15:05:33;40.50;41.90
42135;DHT22;28312;43.460;11.810;2022-07-23T15:09:38;40.50;41.40
42135;DHT22;28312;43.460;11.810;2022-07-23T15:13:42;40.40;40.70
42135;DHT22;28312;43.460;11.810;2022-07-23T15:17:46;40.10;40.30
42135;DHT22;28312;43.460;11.810;2022-07-23T15:21:51;39.90;40.00
42135;DHT22;28312;43.460;11.810;2022-07-23T15:25:57;39.80;39.80
42135;DHT22;28312;43.460;11.810;2022-07-23T15:30:01;39.90;39.40
42135;DHT22;28312;43.460;11.810;2022-07-23T15:34:05;39.90;39.20
42135;DHT22;28312;43.460;11.810;2022-07-23T15:38:09;39.90;39.20
42135;DHT22;28312;43.460;11.810;2022-07-23T15:42:15;39.80;39.00
42135;DHT22;28312;43.460;11.810;2022-07-23T15:46:19;39.70;38.90
42135;DHT22;28312;43.460;11.810;2022-07-23T15:50:29;39.80;38.50
42135;DHT22;28312;43.460;11.810;2022-07-23T15:54:33;39.80;38.50
42135;DHT22;28312;43.460;11.810;2022-07-23T15:58:38;39.80;38.70
42135;DHT22;28312;43.460;11.810;2022-07-23T16:02:41;39.90;38.60
42135;DHT22;28312;43.460;11.810;2022-07-23T16:06:45;39.70;38.80
42135;DHT22;28312;43.460;11.810;2022-07-23T16:10:49;39.50;39.10
42135;DHT22;28312;43.460;11.810;2022-07-23T16:14:54;39.40;39.50
42135;DHT22;28312;43.460;11.810;2022-07-23T16:18:57;39.10;39.50
42135;DHT22;28312;43.460;11.810;2022-07-23T16:23:01;39.00;40.30
42135;DHT22;28312;43.460;11.810;2022-07-23T16:27:05;38.70;41.00
42135;DHT22;28312;43.460;11.810;2022-07-23T16:31:10;38.50;41.30
42135;DHT22;28312;43.460;11.810;2022-07-23T16:35:14;38.20;41.50
42135;DHT22;28312;43.460;11.810;2022-07-23T16:39:18;38.00;42.30
42135;DHT22;28312;43.460;11.810;2022-07-23T16:43:22;37.70;43.00
42135;DHT22;28312;43.460;11.810;2022-07-23T16:47:26;37.40;43.70
42135;DHT22;28312;43.460;11.810;2022-07-23T16:51:30;37.10;44.90
42135;DHT22;28312;43.460;11.810;2022-07-23T16:55:34;36.90;44.90
42135;DHT22;28312;43.460;11.810;2022-07-23T16:59:38;36.70;45.10
42135;DHT22;28312;43.460;11.810;2022-07-23T17:03:42;36.50;46.60
42135;DHT22;28312;43.460;11.810;2022-07-23T17:07:46;36.30;47.20
42135;DHT22;28312;43.460;11.810;2022-07-23T17:11:50;36.10;47.40
42135;DHT22;28312;43.460;11.810;2022-07-23T17:15:54;36.00;48.00
42135;DHT22;28312;43.460;11.810;2022-07-23T17:19:58;35.80;47.90
42135;DHT22;28312;43.460;11.810;2022-07-23T17:24:02;35.60;47.90
42135;DHT22;28312;43.460;11.810;2022-07-23T17:28:12;35.40;48.00
42135;DHT22;28312;43.460;11.810;2022-07-23T17:32:16;35.30;47.70
42135;DHT22;28312;43.460;11.810;2022-07-23T17:36:20;35.10;48.50
42135;DHT22;28312;43.460;11.810;2022-07-23T17:40:25;34.90;49.00
42135;DHT22;28312;43.460;11.810;2022-07-23T17:44:29;34.70;49.00
42135;DHT22;28312;43.460;11.810;2022-07-23T17:48:34;34.60;48.70
42135;DHT22;28312;43.460;11.810;2022-07-23T17:52:47;34.50;49.20
42135;DHT22;28312;43.460;11.810;2022-07-23T17:56:51;34.30;49.10
42135;DHT22;28312;43.460;11.810;2022-07-23T18:00:56;34.10;49.50
42135;DHT22;28312;43.460;11.810;2022-07-23T18:05:00;34.00;49.80
42135;DHT22;28312;43.460;11.810;2022-07-23T18:09:04;33.70;49.90
42135;DHT22;28312;43.460;11.810;2022-07-23T18:13:09;33.60;49.80
42135;DHT22;28312;43.460;11.810;2022-07-23T18:17:12;33.50;50.00
42135;DHT22;28312;43.460;11.810;2022-07-23T18:21:16;33.20;50.50
42135;DHT22;28312;43.460;11.810;2022-07-23T18:25:20;33.00;50.40
42135;DHT22;28312;43.460;11.810;2022-07-23T18:29:27;32.90;50.10
42135;DHT22;28312;43.460;11.810;2022-07-23T18:33:30;32.70;50.00
42135;DHT22;28312;43.460;11.810;2022-07-23T18:37:41;32.50;49.90
42135;DHT22;28312;43.460;11.810;2022-07-23T18:41:45;32.40;49.70
42135;DHT22;28312;43.460;11.810;2022-07-23T18:45:49;32.20;49.80
42135;DHT22;28312;43.460;11.810;2022-07-23T18:49:54;32.10;49.60
42135;DHT22;28312;43.460;11.810;2022-07-23T18:53:57;31.90;49.40
42135;DHT22;28312;43.460;11.810;2022-07-23T18:58:01;31.70;49.60
42135;DHT22;28312;43.460;11.810;2022-07-23T19:02:06;31.60;49.80
42135;DHT22;28312;43.460;11.810;2022-07-23T19:06:10;31.40;49.80
42135;DHT22;28312;43.460;11.810;2022-07-23T19:10:14;31.30;49.90
42135;DHT22;28312;43.460;11.810;2022-07-23T19:14:18;31.20;50.10
42135;DHT22;28312;43.460;11.810;2022-07-23T19:18:22;31.10;50.00
42135;DHT22;28312;43.460;11.810;2022-07-23T19:22:26;31.00;50.00
42135;DHT22;28312;43.460;11.810;2022-07-23T19:26:30;30.80;50.00
42135;DHT22;28312;43.460;11.810;2022-07-23T19:30:34;30.70;50.20
42135;DHT22;28312;43.460;11.810;2022-07-23T19:34:38;30.60;50.00
42135;DHT22;28312;43.460;11.810;2022-07-23T19:38:42;30.50;49.80
42135;DHT22;28312;43.460;11.810;2022-07-23T19:42:47;30.40;49.50
42135;DHT22;28312;43.460;11.810;2022-07-23T19:46:51;30.30;49.20
42135;DHT22;28312;43.460;11.810;2022-07-23T19:50:55;30.20;48.80
42135;DHT22;28312;43.460;11.810;2022-07-23T19:54:59;30.10;48.40
42135;DHT22;28312;43.460;11.810;2022-07-23T19:59:20;29.90;48.20
42135;DHT22;28312;43.460;11.810;2022-07-23T20:03:24;29.70;48.10
42135;DHT22;28312;43.460;11.810;2022-07-23T20:07:28;29.50;48.10
42135;DHT22;28312;43.460;11.810;2022-07-23T20:11:32;29.20;48.30
42135;DHT22;28312;43.460;11.810;2022-07-23T20:15:36;28.90;48.30
42135;DHT22;28312;43.460;11.810;2022-07-23T20:19:40;28.70;48.30
42135;DHT22;28312;43.460;11.810;2022-07-23T20:23:44;28.60;48.20
42135;DHT22;28312;43.460;11.810;2022-07-23T20:27:47;28.50;48.20
42135;DHT22;28312;43.460;11.810;2022-07-23T20:31:51;28.30;48.20
42135;DHT22;28312;43.460;11.810;2022-07-23T20:35:56;28.20;48.20
42135;DHT22;28312;43.460;11.810;2022-07-23T20:40:00;28.20;48.00
42135;DHT22;28312;43.460;11.810;2022-07-23T20:44:04;28.10;47.90
42135;DHT22;28312;43.460;11.810;2022-07-23T20:48:09;28.00;47.90
42135;DHT22;28312;43.460;11.810;2022-07-23T20:52:14;28.00;47.80
42135;DHT22;28312;43.460;11.810;2022-07-23T20:56:25;28.00;47.70
42135;DHT22;28312;43.460;11.810;2022-07-23T21:00:29;28.00;47.70
42135;DHT22;28312;43.460;11.810;2022-07-23T21:04:33;28.00;47.50
42135;DHT22;28312;43.460;11.810;2022-07-23T21:08:39;27.90;47.50
42135;DHT22;28312;43.460;11.810;2022-07-23T21:12:42;27.80;47.40
42135;DHT22;28312;43.460;11.810;2022-07-23T21:16:46;27.60;47.40
42135;DHT22;28312;43.460;11.810;2022-07-23T21:20:50;27.40;47.50
42135;DHT22;28312;43.460;11.810;2022-07-23T21:25:14;27.20;47.60
42135;DHT22;28312;43.460;11.810;2022-07-23T21:29:17;27.10;47.60
42135;DHT22;28312;43.460;11.810;2022-07-23T21:33:21;26.80;47.60
42135;DHT22;28312;43.460;11.810;2022-07-23T21:37:25;26.70;47.70
42135;DHT22;28312;43.460;11.810;2022-07-23T21:41:31;26.50;47.90
42135;DHT22;28312;43.460;11.810;2022-07-23T21:45:35;26.20;48.00
42135;DHT22;28312;43.460;11.810;2022-07-23T21:49:41;26.10;48.00
42135;DHT22;28312;43.460;11.810;2022-07-23T21:53:45;25.90;48.20
42135;DHT22;28312;43.460;11.810;2022-07-23T21:57:49;25.70;48.20
42135;DHT22;28312;43.460;11.810;2022-07-23T22:01:52;25.50;48.40
42135;DHT22;28312;43.460;11.810;2022-07-23T22:05:56;25.20;48.50
42135;DHT22;28312;43.460;11.810;2022-07-23T22:10:06;25.10;48.60
42135;DHT22;28312;43.460;11.810;2022-07-23T22:14:14;25.00;48.70
42135;DHT22;28312;43.460;11.810;2022-07-23T22:18:19;24.80;48.80
42135;DHT22;28312;43.460;11.810;2022-07-23T22:22:22;24.60;49.00
42135;DHT22;28312;43.460;11.810;2022-07-23T22:26:26;24.60;49.10
42135;DHT22;28312;43.460;11.810;2022-07-23T22:30:32;24.40;49.10
42135;DHT22;28312;43.460;11.810;2022-07-23T22:34:36;24.20;49.20
42135;DHT22;28312;43.460;11.810;2022-07-23T22:38:40;24.10;49.20
42135;DHT22;28312;43.460;11.810;2022-07-23T22:42:44;24.10;49.20
42135;DHT22;28312;43.460;11.810;2022-07-23T22:46:49;24.10;49.20
42135;DHT22;28312;43.460;11.810;2022-07-23T22:50:53;23.90;49.30
42135;DHT22;28312;43.460;11.810;2022-07-23T22:54:57;23.80;49.40
42135;DHT22;28312;43.460;11.810;2022-07-23T22:59:00;23.70;49.60
42135;DHT22;28312;43.460;11.810;2022-07-23T23:03:27;23.80;49.70
42135;DHT22;28312;43.460;11.810;2022-07-23T23:07:31;23.80;49.60
42135;DHT22;28312;43.460;11.810;2022-07-23T23:11:35;23.90;49.80
42135;DHT22;28312;43.460;11.810;2022-07-23T23:15:38;24.00;49.80
42135;DHT22;28312;43.460;11.810;2022-07-23T23:19:43;24.10;49.80
42135;DHT22;28312;43.460;11.810;2022-07-23T23:23:47;24.20;49.70
42135;DHT22;28312;43.460;11.810;2022-07-23T23:27:51;24.30;49.70
42135;DHT22;28312;43.460;11.810;2022-07-23T23:31:55;24.40;49.60
42135;DHT22;28312;43.460;11.810;2022-07-23T23:35:59;24.40;49.50
42135;DHT22;28312;43.460;11.810;2022-07-23T23:40:03;24.50;49.60
42135;DHT22;28312;43.460;11.810;2022-07-23T23:44:08;24.60;49.60
42135;DHT22;28312;43.460;11.810;2022-07-23T23:48:12;24.60;49.60
42135;DHT22;28312;43.460;11.810;2022-07-23T23:52:16;24.70;49.70
42135;DHT22;28312;43.460;11.810;2022-07-23T23:56:23;24.80;49.70
